createdAt,value
2023-02-15T00:00:43.463Z,7.15
2023-02-15T00:03:28.300Z,7.17
2023-02-15T00:06:13.147Z,7.17
2023-02-15T00:08:57.973Z,7.13
2023-02-15T00:11:42.729Z,7.04
2023-02-15T00:14:27.468Z,7.04
2023-02-15T00:17:12.095Z,7.01
2023-02-15T00:19:56.895Z,7.05
2023-02-15T00:22:41.621Z,7.00
2023-02-15T00:25:26.490Z,6.92
2023-02-15T00:28:11.058Z,6.96
2023-02-15T00:30:55.874Z,6.94
2023-02-15T00:33:41.037Z,6.93
2023-02-15T00:36:25.736Z,6.94
2023-02-15T00:39:10.406Z,6.90
2023-02-15T00:41:55.129Z,6.82
2023-02-15T00:44:39.933Z,6.86
2023-02-15T00:47:24.617Z,6.85
2023-02-15T00:50:09.387Z,6.85
2023-02-15T00:52:54.107Z,6.82
2023-02-15T00:55:38.957Z,6.79
2023-02-15T00:58:23.934Z,6.80
2023-02-15T01:01:08.694Z,6.85
2023-02-15T01:03:53.436Z,6.94
2023-02-15T01:06:38.246Z,6.93
2023-02-15T01:09:23.110Z,6.86
2023-02-15T01:12:08.025Z,6.91
2023-02-15T01:14:52.842Z,6.91
2023-02-15T01:17:37.642Z,6.98
2023-02-15T01:20:22.460Z,6.94
2023-02-15T01:23:07.167Z,6.92
2023-02-15T01:25:52.091Z,6.88
2023-02-15T01:28:36.739Z,6.86
2023-02-15T01:31:21.582Z,6.83
2023-02-15T01:34:06.691Z,6.85
2023-02-15T01:36:51.508Z,6.81
2023-02-15T01:39:36.311Z,6.84
2023-02-15T01:42:20.953Z,6.90
2023-02-15T01:45:05.819Z,6.96
2023-02-15T01:47:50.551Z,7.01
2023-02-15T01:50:35.316Z,7.02
2023-02-15T01:53:19.898Z,6.96
2023-02-15T01:56:04.658Z,6.88
2023-02-15T01:58:49.395Z,6.92
2023-02-15T02:01:34.193Z,6.86
2023-02-15T02:04:18.819Z,6.85
2023-02-15T02:07:03.618Z,6.79
2023-02-15T02:09:48.379Z,6.76
2023-02-15T02:12:33.324Z,6.79
2023-02-15T02:15:18.241Z,6.76
2023-02-15T02:18:02.947Z,6.74
2023-02-15T02:20:47.853Z,6.65
2023-02-15T02:23:32.628Z,6.52
2023-02-15T02:26:17.347Z,6.53
2023-02-15T02:29:02.053Z,6.66
2023-02-15T02:31:46.872Z,6.66
2023-02-15T02:34:31.537Z,6.61
2023-02-15T02:37:16.282Z,6.65
2023-02-15T02:40:01.122Z,6.67
2023-02-15T02:42:45.782Z,6.64
2023-02-15T02:45:30.598Z,6.64
2023-02-15T02:48:15.351Z,6.62
2023-02-15T02:51:00.209Z,6.54
2023-02-15T02:53:44.934Z,6.52
2023-02-15T02:56:29.688Z,6.56
2023-02-15T02:59:14.482Z,6.57
2023-02-15T03:01:59.286Z,6.56
2023-02-15T03:04:43.820Z,6.50
2023-02-15T03:07:28.684Z,6.49
2023-02-15T03:10:13.577Z,6.46
2023-02-15T03:12:58.362Z,6.45
2023-02-15T03:15:43.280Z,6.45
2023-02-15T03:18:27.989Z,6.50
2023-02-15T03:21:12.662Z,6.51
2023-02-15T03:23:57.444Z,6.49
2023-02-15T03:26:42.157Z,6.46
2023-02-15T03:29:26.902Z,6.48
2023-02-15T03:32:11.934Z,6.51
2023-02-15T03:34:57.009Z,6.51
2023-02-15T03:37:41.768Z,6.57
2023-02-15T03:40:26.521Z,6.52
2023-02-15T03:43:11.183Z,6.54
2023-02-15T03:45:55.987Z,6.57
2023-02-15T03:48:40.649Z,6.58
2023-02-15T03:51:25.305Z,6.58
2023-02-15T03:54:09.953Z,6.54
2023-02-15T03:56:54.675Z,6.53
2023-02-15T03:59:39.289Z,6.53
2023-02-15T04:02:23.996Z,6.53
2023-02-15T04:05:08.662Z,6.47
2023-02-15T04:07:53.456Z,6.39
2023-02-15T04:10:38.187Z,6.41
2023-02-15T04:13:22.852Z,6.38
2023-02-15T04:16:08.616Z,6.32
2023-02-15T04:18:53.787Z,6.31
2023-02-15T04:21:38.613Z,6.34
2023-02-15T04:24:23.352Z,6.33
2023-02-15T04:27:08.176Z,6.35
2023-02-15T04:29:52.829Z,6.36
2023-02-15T04:32:37.538Z,6.39
2023-02-15T04:35:22.258Z,6.46
2023-02-15T04:38:06.955Z,6.43
2023-02-15T04:40:51.830Z,6.38
2023-02-15T04:43:36.525Z,6.39
2023-02-15T04:46:21.322Z,6.37
2023-02-15T04:49:06.022Z,6.41
2023-02-15T04:51:50.879Z,6.37
2023-02-15T04:54:35.564Z,6.31
2023-02-15T04:57:20.405Z,6.33
2023-02-15T05:00:05.078Z,6.36
2023-02-15T05:02:49.780Z,6.25
2023-02-15T05:05:34.529Z,6.24
2023-02-15T05:08:19.349Z,6.29
2023-02-15T05:11:04.166Z,6.31
2023-02-15T05:13:48.894Z,6.28
2023-02-15T05:16:33.719Z,6.28
2023-02-15T05:19:18.387Z,6.33
2023-02-15T05:22:03.044Z,6.33
2023-02-15T05:24:47.794Z,6.24
2023-02-15T05:27:32.537Z,6.28
2023-02-15T05:30:17.205Z,6.25
2023-02-15T05:33:02.358Z,6.28
2023-02-15T05:35:47.046Z,6.35
2023-02-15T05:38:31.746Z,6.36
2023-02-15T05:41:16.432Z,6.38
2023-02-15T05:44:01.103Z,6.38
2023-02-15T05:46:45.947Z,6.41
2023-02-15T05:49:30.723Z,6.53
2023-02-15T05:52:15.634Z,6.54
2023-02-15T05:55:00.452Z,6.59
2023-02-15T05:57:45.238Z,6.60
2023-02-15T06:00:29.922Z,6.61
2023-02-15T06:03:14.908Z,6.60
2023-02-15T06:05:59.662Z,6.55
2023-02-15T06:08:44.714Z,6.45
2023-02-15T06:11:29.530Z,6.36
2023-02-15T06:14:14.278Z,6.26
2023-02-15T06:16:59.129Z,6.27
2023-02-15T06:19:43.957Z,6.28
2023-02-15T06:22:28.982Z,6.30
2023-02-15T06:25:13.812Z,6.24
2023-02-15T06:27:58.603Z,6.13
2023-02-15T06:30:43.427Z,6.17
2023-02-15T06:33:28.047Z,6.24
2023-02-15T06:36:12.868Z,6.16
2023-02-15T06:38:57.606Z,6.13
2023-02-15T06:41:42.431Z,6.11
2023-02-15T06:44:27.067Z,6.11
2023-02-15T06:47:12.128Z,6.16
2023-02-15T06:49:56.787Z,6.14
2023-02-15T06:52:41.654Z,6.22
2023-02-15T06:55:26.455Z,6.24
2023-02-15T06:58:11.149Z,6.20
2023-02-15T07:00:55.906Z,6.18
2023-02-15T07:03:40.666Z,6.15
2023-02-15T07:06:25.593Z,6.26
2023-02-15T07:09:10.685Z,6.26
2023-02-15T07:11:55.724Z,6.37
2023-02-15T07:14:40.428Z,6.39
2023-02-15T07:17:35.544Z,6.40
2023-02-15T07:20:20.964Z,6.36
2023-02-15T07:23:05.772Z,6.47
2023-02-15T07:25:50.496Z,6.53
2023-02-15T07:28:35.252Z,6.54
2023-02-15T07:31:20.308Z,6.58
2023-02-15T07:34:05.268Z,6.58
2023-02-15T07:36:50.094Z,6.58
2023-02-15T07:39:34.853Z,6.57
2023-02-15T07:42:19.525Z,8.98
2023-02-15T07:45:04.438Z,10.99
2023-02-15T07:47:49.173Z,12.02
2023-02-15T07:50:33.906Z,12.60
2023-02-15T07:53:18.833Z,12.96
2023-02-15T07:56:03.892Z,13.13
2023-02-15T07:58:49.012Z,13.19
2023-02-15T08:01:33.632Z,12.90
2023-02-15T08:04:18.388Z,12.49
2023-02-15T08:07:03.186Z,11.88
2023-02-15T08:09:48.045Z,11.26
2023-02-15T08:12:32.771Z,10.79
2023-02-15T08:15:17.596Z,10.46
2023-02-15T08:18:02.393Z,10.20
2023-02-15T08:20:47.050Z,9.97
2023-02-15T08:23:31.916Z,9.82
2023-02-15T08:26:16.529Z,9.70
2023-02-15T08:29:01.445Z,9.66
2023-02-15T08:31:46.159Z,9.59
2023-02-15T08:34:31.372Z,9.63
2023-02-15T08:37:16.005Z,9.76
2023-02-15T08:40:00.751Z,9.89
2023-02-15T08:42:45.432Z,9.97
2023-02-15T08:45:30.224Z,10.08
2023-02-15T08:48:15.427Z,10.19
2023-02-15T08:51:00.485Z,10.29
2023-02-15T08:53:45.616Z,10.44
2023-02-15T08:56:30.724Z,10.43
2023-02-15T08:59:15.632Z,10.38
2023-02-15T09:02:00.432Z,10.40
2023-02-15T09:04:45.208Z,10.49
2023-02-15T09:07:29.915Z,10.60
2023-02-15T09:10:14.580Z,10.71
2023-02-15T09:12:59.368Z,10.72
2023-02-15T09:15:43.990Z,10.76
2023-02-15T09:18:29.951Z,10.91
2023-02-15T09:21:14.574Z,10.95
2023-02-15T09:23:59.518Z,10.96
2023-02-15T09:26:44.036Z,10.95
2023-02-15T09:29:28.752Z,10.96
2023-02-15T09:32:13.552Z,11.09
2023-02-15T09:34:58.330Z,11.24
2023-02-15T09:37:43.164Z,11.39
2023-02-15T09:40:27.940Z,11.54
2023-02-15T09:43:12.822Z,11.66
2023-02-15T09:45:57.579Z,11.73
2023-02-15T09:48:42.228Z,11.81
2023-02-15T09:51:26.892Z,11.86
2023-02-15T09:54:11.778Z,11.89
2023-02-15T09:56:56.432Z,11.94
2023-02-15T09:59:41.119Z,11.94
2023-02-15T10:02:25.753Z,11.93
2023-02-15T10:05:10.512Z,11.94
2023-02-15T10:07:55.339Z,11.93
2023-02-15T10:10:40.124Z,11.86
2023-02-15T10:13:24.923Z,11.91
2023-02-15T10:16:09.722Z,11.89
2023-02-15T10:18:54.627Z,12.11
2023-02-15T10:21:39.202Z,12.31
2023-02-15T10:24:24.166Z,12.39
2023-02-15T10:27:08.885Z,12.32
2023-02-15T10:29:53.500Z,12.39
2023-02-15T10:32:38.155Z,12.36
2023-02-15T10:35:22.952Z,12.31
2023-02-15T10:38:07.754Z,12.35
2023-02-15T10:40:52.543Z,12.46
2023-02-15T10:43:37.381Z,12.60
2023-02-15T10:46:22.142Z,12.77
2023-02-15T10:49:07.246Z,12.86
2023-02-15T10:51:51.960Z,12.96
2023-02-15T10:54:36.797Z,13.09
2023-02-15T10:57:21.609Z,13.03
2023-02-15T11:00:06.350Z,13.00
2023-02-15T11:02:50.939Z,13.06
2023-02-15T11:05:35.636Z,13.12
2023-02-15T11:08:20.473Z,13.08
2023-02-15T11:11:05.176Z,13.14
2023-02-15T11:13:50.402Z,13.10
2023-02-15T11:16:35.107Z,13.07
2023-02-15T11:19:19.937Z,13.10
2023-02-15T11:22:04.740Z,13.15
2023-02-15T11:24:49.326Z,13.29
2023-02-15T11:27:34.222Z,13.49
2023-02-15T11:30:19.521Z,13.71
2023-02-15T11:33:06.880Z,13.91
2023-02-15T11:35:51.929Z,14.25
2023-02-15T11:38:36.648Z,14.59
2023-02-15T11:41:21.383Z,14.62
2023-02-15T11:44:06.162Z,14.65
2023-02-15T11:46:50.994Z,14.46
2023-02-15T11:49:36.288Z,14.34
2023-02-15T11:52:21.026Z,14.19
2023-02-15T11:55:05.778Z,13.99
2023-02-15T11:57:50.670Z,13.97
2023-02-15T12:00:35.496Z,14.48
2023-02-15T12:03:22.510Z,14.42
2023-02-15T12:06:08.193Z,14.28
2023-02-15T12:08:53.080Z,14.30
2023-02-15T12:11:37.949Z,14.16
2023-02-15T12:14:22.744Z,14.11
2023-02-15T12:17:07.579Z,13.97
2023-02-15T12:19:52.365Z,13.94
2023-02-15T12:22:37.511Z,13.86
2023-02-15T12:25:22.108Z,13.84
2023-02-15T12:28:07.040Z,13.94
2023-02-15T12:30:51.827Z,14.01
2023-02-15T12:33:36.840Z,14.02
2023-02-15T12:36:21.895Z,13.93
2023-02-15T12:39:06.701Z,13.82
2023-02-15T12:41:51.612Z,13.90
2023-02-15T12:44:36.275Z,13.94
2023-02-15T12:47:21.105Z,13.94
2023-02-15T12:50:05.801Z,14.02
2023-02-15T12:52:50.548Z,14.03
2023-02-15T12:55:35.206Z,14.10
2023-02-15T12:58:20.030Z,14.08
2023-02-15T13:01:04.945Z,14.16
2023-02-15T13:03:49.973Z,14.19
2023-02-15T13:06:34.691Z,14.21
2023-02-15T13:09:19.336Z,14.28
2023-02-15T13:12:04.256Z,14.32
2023-02-15T13:14:49.102Z,14.33
2023-02-15T13:17:34.233Z,14.32
2023-02-15T13:20:18.897Z,14.39
2023-02-15T13:23:03.678Z,14.39
2023-02-15T13:25:48.496Z,14.38
2023-02-15T13:28:33.286Z,14.42
2023-02-15T13:31:18.108Z,14.45
2023-02-15T13:34:02.961Z,14.48
2023-02-15T13:36:48.007Z,14.45
2023-02-15T13:39:33.093Z,14.45
2023-02-15T13:42:17.883Z,14.45
2023-02-15T13:45:02.547Z,14.47
2023-02-15T13:47:47.442Z,14.48
2023-02-15T13:50:32.266Z,14.43
2023-02-15T13:53:17.132Z,14.47
2023-02-15T13:56:02.034Z,14.51
2023-02-15T13:58:47.358Z,14.50
2023-02-15T14:01:32.699Z,14.48
2023-02-15T14:04:17.975Z,14.39
2023-02-15T14:07:03.330Z,14.38
2023-02-15T14:09:47.958Z,14.38
2023-02-15T14:12:32.857Z,14.40
2023-02-15T14:15:17.607Z,14.40
2023-02-15T14:18:02.343Z,14.41
2023-02-15T14:20:47.093Z,14.36
2023-02-15T14:23:31.900Z,14.31
2023-02-15T14:26:16.674Z,14.31
2023-02-15T14:29:01.393Z,14.37
2023-02-15T14:31:46.421Z,14.44
2023-02-15T14:34:32.589Z,14.41
2023-02-15T14:37:17.569Z,14.45
2023-02-15T14:40:02.289Z,14.44
2023-02-15T14:42:46.933Z,14.46
2023-02-15T14:45:34.279Z,14.41
2023-02-15T14:48:19.904Z,14.34
2023-02-15T14:51:04.911Z,14.25
2023-02-15T14:53:49.778Z,14.21
2023-02-15T14:56:34.639Z,14.01
2023-02-15T14:59:19.449Z,13.83
2023-02-15T15:02:04.357Z,13.59
2023-02-15T15:04:49.006Z,13.40
2023-02-15T15:07:33.865Z,13.18
2023-02-15T15:10:18.629Z,13.04
2023-02-15T15:13:03.349Z,12.91
2023-02-15T15:15:48.145Z,12.69
2023-02-15T15:18:34.381Z,12.60
2023-02-15T15:21:19.646Z,12.48
2023-02-15T15:24:04.449Z,12.36
2023-02-15T15:26:50.614Z,12.28
2023-02-15T15:29:36.350Z,12.12
2023-02-15T15:32:21.522Z,11.94
2023-02-15T15:35:06.211Z,11.91
2023-02-15T15:37:50.963Z,11.86
2023-02-15T15:40:35.772Z,11.86
2023-02-15T15:43:20.473Z,11.71
2023-02-15T15:46:05.551Z,11.59
2023-02-15T15:48:50.721Z,11.59
2023-02-15T15:51:35.401Z,11.47
2023-02-15T15:54:20.346Z,11.28
2023-02-15T15:57:05.009Z,11.24
2023-02-15T15:59:49.665Z,11.19
2023-02-15T16:02:34.479Z,11.22
2023-02-15T16:05:19.319Z,11.15
2023-02-15T16:08:04.096Z,11.15
2023-02-15T16:10:48.893Z,11.06
2023-02-15T16:13:34.089Z,11.03
2023-02-15T16:16:19.216Z,10.89
2023-02-15T16:19:04.528Z,10.79
2023-02-15T16:21:49.343Z,10.67
2023-02-15T16:24:34.170Z,10.50
2023-02-15T16:27:18.949Z,10.55
2023-02-15T16:30:03.770Z,10.58
2023-02-15T16:32:48.873Z,10.47
2023-02-15T16:35:33.695Z,10.34
2023-02-15T16:38:18.502Z,10.24
2023-02-15T16:41:03.599Z,10.18
2023-02-15T16:43:48.675Z,10.23
2023-02-15T16:46:33.410Z,10.25
2023-02-15T16:49:18.050Z,10.13
2023-02-15T16:52:02.678Z,10.10
2023-02-15T16:54:47.447Z,10.04
2023-02-15T16:57:32.167Z,9.98
2023-02-15T17:00:16.939Z,9.92
2023-02-15T17:03:01.662Z,9.84
2023-02-15T17:05:46.574Z,9.80
2023-02-15T17:08:31.298Z,9.73
2023-02-15T17:11:16.034Z,9.66
2023-02-15T17:14:00.810Z,9.57
2023-02-15T17:16:45.667Z,9.64
2023-02-15T17:19:30.462Z,9.55
2023-02-15T17:22:15.249Z,9.50
2023-02-15T17:25:00.295Z,9.45
2023-02-15T17:27:45.182Z,9.40
2023-02-15T17:30:30.062Z,9.34
2023-02-15T17:33:15.254Z,9.34
2023-02-15T17:36:00.107Z,9.33
2023-02-15T17:38:44.861Z,9.29
2023-02-15T17:41:29.625Z,9.19
2023-02-15T17:44:14.603Z,9.17
2023-02-15T17:46:59.330Z,9.11
2023-02-15T17:49:44.111Z,9.01
2023-02-15T17:52:28.835Z,8.99
2023-02-15T17:55:13.653Z,8.99
2023-02-15T17:57:58.378Z,8.90
2023-02-15T18:00:43.317Z,8.87
2023-02-15T18:03:28.569Z,8.89
2023-02-15T18:06:13.282Z,8.81
2023-02-15T18:08:58.090Z,8.80
2023-02-15T18:11:42.886Z,8.77
2023-02-15T18:14:27.704Z,8.74
2023-02-15T18:17:12.377Z,8.67
2023-02-15T18:19:57.239Z,8.62
2023-02-15T18:22:41.802Z,8.57
2023-02-15T18:25:26.557Z,8.57
2023-02-15T18:28:11.334Z,8.50
2023-02-15T18:30:56.073Z,8.47
2023-02-15T18:33:40.811Z,8.44
2023-02-15T18:36:25.654Z,8.45
2023-02-15T18:39:10.572Z,8.39
2023-02-15T18:41:55.374Z,8.29
2023-02-15T18:44:40.297Z,8.24
2023-02-15T18:47:25.453Z,8.21
2023-02-15T18:50:10.109Z,8.18
2023-02-15T18:52:54.831Z,8.10
2023-02-15T18:55:39.757Z,8.05
2023-02-15T18:58:24.688Z,8.03
2023-02-15T19:01:09.476Z,8.04
2023-02-15T19:03:54.339Z,7.95
2023-02-15T19:06:39.208Z,7.98
2023-02-15T19:09:23.973Z,7.98
2023-02-15T19:12:08.759Z,7.95
2023-02-15T19:14:53.548Z,7.99
2023-02-15T19:17:38.345Z,8.00
2023-02-15T19:20:23.202Z,8.00
2023-02-15T19:23:08.004Z,8.01
2023-02-15T19:25:52.683Z,8.00
2023-02-15T19:28:37.533Z,8.01
2023-02-15T19:31:22.373Z,7.98
2023-02-15T19:34:07.730Z,7.96
2023-02-15T19:36:52.403Z,7.86
2023-02-15T19:39:37.239Z,7.81
2023-02-15T19:42:22.075Z,7.81
2023-02-15T19:45:06.906Z,7.72
2023-02-15T19:47:51.553Z,7.70
2023-02-15T19:50:36.340Z,7.67
2023-02-15T19:53:21.121Z,7.63
2023-02-15T19:56:06.138Z,7.58
2023-02-15T19:58:51.266Z,7.60
2023-02-15T20:01:36.181Z,7.55
2023-02-15T20:04:21.246Z,7.54
2023-02-15T20:07:05.889Z,7.58
2023-02-15T20:09:50.730Z,7.58
2023-02-15T20:12:35.439Z,7.51
2023-02-15T20:15:20.262Z,7.51
2023-02-15T20:18:05.091Z,7.50
2023-02-15T20:20:49.806Z,7.48
2023-02-15T20:23:34.604Z,7.42
2023-02-15T20:26:19.293Z,7.45
2023-02-15T20:29:04.169Z,7.42
2023-02-15T20:31:49.126Z,7.40
2023-02-15T20:34:34.200Z,7.38
2023-02-15T20:37:18.939Z,7.34
2023-02-15T20:40:03.833Z,7.33
2023-02-15T20:42:48.516Z,7.31
2023-02-15T20:45:33.179Z,7.31
2023-02-15T20:48:18.019Z,7.24
2023-02-15T20:51:03.061Z,7.20
2023-02-15T20:53:48.220Z,7.15
2023-02-15T20:56:33.900Z,7.14
2023-02-15T20:59:18.819Z,7.15
2023-02-15T21:02:03.565Z,7.18
2023-02-15T21:04:48.310Z,7.12
2023-02-15T21:07:33.006Z,7.07
2023-02-15T21:10:17.821Z,7.12
2023-02-15T21:13:02.529Z,7.11
2023-02-15T21:15:47.313Z,7.08
2023-02-15T21:18:32.569Z,7.05
2023-02-15T21:21:17.334Z,7.04
2023-02-15T21:24:02.204Z,7.02
2023-02-15T21:26:46.925Z,6.98
2023-02-15T21:29:31.723Z,6.96
2023-02-15T21:32:16.663Z,6.90
2023-02-15T21:35:01.941Z,6.88
2023-02-15T21:37:46.812Z,6.84
2023-02-15T21:40:31.978Z,6.82
2023-02-15T21:43:16.795Z,6.81
2023-02-15T21:46:01.676Z,6.79
2023-02-15T21:48:46.484Z,6.81
2023-02-15T21:51:31.337Z,6.82
2023-02-15T21:54:16.127Z,6.81
2023-02-15T21:57:01.325Z,6.78
2023-02-15T21:59:46.096Z,6.80
2023-02-15T22:02:30.866Z,6.80
2023-02-15T22:05:15.677Z,6.84
2023-02-15T22:08:00.553Z,6.81
2023-02-15T22:10:45.183Z,6.76
2023-02-15T22:13:30.074Z,6.77
2023-02-15T22:16:14.774Z,6.74
2023-02-15T22:18:59.515Z,6.74
2023-02-15T22:21:44.141Z,6.70
2023-02-15T22:24:29.025Z,6.73
2023-02-15T22:27:13.714Z,6.75
2023-02-15T22:29:58.595Z,6.78
2023-02-15T22:32:43.260Z,6.81
2023-02-15T22:35:28.011Z,6.83
2023-02-15T22:38:12.765Z,6.75
2023-02-15T22:40:57.554Z,6.79
2023-02-15T22:43:42.333Z,6.82
2023-02-15T22:46:26.964Z,6.81
2023-02-15T22:49:11.778Z,6.78
2023-02-15T22:51:56.350Z,6.72
2023-02-15T22:54:41.172Z,6.72
2023-02-15T22:57:25.969Z,6.74
2023-02-15T23:00:10.817Z,6.73
2023-02-15T23:02:55.525Z,6.67
2023-02-15T23:05:40.447Z,6.64
2023-02-15T23:08:25.710Z,6.55
2023-02-15T23:11:10.452Z,6.51
2023-02-15T23:13:55.436Z,6.48
2023-02-15T23:16:40.040Z,6.54
2023-02-15T23:19:24.729Z,6.53
2023-02-15T23:22:09.508Z,6.54
2023-02-15T23:24:54.364Z,6.50
2023-02-15T23:27:39.120Z,6.47
2023-02-15T23:30:23.943Z,6.42
2023-02-15T23:33:09.189Z,6.41
2023-02-15T23:35:53.983Z,6.42
2023-02-15T23:38:38.806Z,6.44
2023-02-15T23:41:23.438Z,6.43
2023-02-15T23:44:08.253Z,6.43
2023-02-15T23:46:52.975Z,6.39
2023-02-15T23:49:37.758Z,6.36
2023-02-15T23:52:22.549Z,6.28
2023-02-15T23:55:07.382Z,6.30
2023-02-15T23:57:52.097Z,6.34
